The Florida Keys Marathon Airport
KMTH : now visible

Airfield :











YOU CAN JOIN US ON...

 
LOGIN :

Register | Disclaimer

   EN    FR    IT 

 









Legend :    VFR   Marginal VFR   IFR   Intensive IFR   Very Intensive IFR
Visi :
Ceiling :
>= 8 km
>= 3000ft
5 to 8 km
1000 to 3000 ft
1500m to 5 km
500 to 1000 ft
800 to 1500m
200 to 500 ft
< 800m
< 200 ft
Symbols :   Thunderstorms  Fog  Heavy snow  Heavy precipitations  Wind > 20 kt






- Airport Elevation : 5 ft


KMTH - The Florida Keys Marathon

CURRENT METAR :
  • 291753Z AUTO 12009KT 10SM FEW022 31/24 A3001 RMK AO2 SLP160 T03110244 10317 20283 58004 TSNO

EXPIRED METARs :
  • 291653Z AUTO 11009KT 10SM FEW025 31/24 A3002 RMK AO2 SLP164 T03110244 TSNO
  • 291553Z AUTO 12010KT 10SM SCT024 30/24 A3003 RMK AO2 SLP168 T03000244 TSNO
  • 291524Z AUTO 12008G16KT 10SM SCT023 30/24 A3003 RMK AO2 T03000244 TSNO
  • 291453Z AUTO 11008G15KT 10SM SCT022 31/24 A3002 RMK AO2 SLP164 T03060244 55001 TSNO

TAF KMTH
Valid from the 29 at 12:00 until the 30 at 12:00 UTC


291128Z 2912/3012 10008KT P6SM SCT018
FM300400 11008KT P6SM VCSH SCT018 SCT030
KZMA FIR / North America



MET'MAP, your aeronautical weather chart ! - Copyright ORBIFLY December 2007 - Disclaimer

ORBIFLY MET'MAP TEAM :

Programming & Development : Alexandra Zaïnal
Concept & original design : Baudouin d'Aumeries
Assistance for programming : Marc-Olivier Méhu
Technical & hardware support : Manuel Goepfert

Contact : metmap@orbifly.com




SOURCES & CREDITS :

   NOAA       Earth
Advisory